Edmonton International Airport
CYEG : rendu visible

Aérodrome :











RETROUVEZ-NOUS SUR...

 
LOGIN :

S'inscrire | Disclaimer

   EN    FR    IT 

 









Légende :    VFR   VFR Marginal   IFR   IFR Intensif   IFR Très Intensif
Visi : 
Plafond : 
>= 8 km
>= 3000ft
5 à 8 km
1000 à 3000 ft
1500m à 5 km
500 à 1000 ft
800 à 1500m
200 à 500 ft
< 800m
< 200 ft
Symboles :   Orages  Brouillard  Fortes neiges  Fortes précipitations  Vent > 20 kt






- Altitude de l'aérodrome : 2373 ft
- Code IATA : YEG


CYEG - Edmonton International

DERNIER METAR :
  • 150733Z 15005KT 1SM R02/P6000FT/U R12/P6000FT/U BR OVC003 M02/M03 A2981 RMK FG2ST6 VIS S-SW-W-NW 1/2 SLP131

METARs EXPIRÉS :
  • 150724Z 16006KT 3/4SM R02/4500VP6000FT/U R12/5000VP6000FT/U BR OVC003 M02/M03 A2981 RMK FG3ST5 SLP132
  • 150700Z 15006KT 3/4SM R02/4500VP6000FT/U R12/5500VP6000FT/N BR OVC002 M02/M02 A2981 RMK FG4ST4 SLP129
  • 150600Z 15009KT 1/2SM R02/3500V5500FT/U R12/6000FT/U FZFG OVC002 M02/M02 A2981 RMK FG5ST3 VIS HIER E SLP130
  • 150500Z 14007KT 5/8SM R02/6000FT/D R12/P6000FT/D BR OVC002 M02/M02 A2983 RMK FG4ST4 SLP137
  • 150437Z 15007KT 5/8SM R02/6000FT/D R12/P6000FT/D BR OVC002 M02/M02 A2983 RMK FG4ST4 SLP138

TAF TAF CYEG
Valide du 15 à 06h jusqu'au 16 à 06h UTC


150540Z 1506/1606 16006KT 1/2SM FZFG VV002
TEMPO 1506/1517 2SM BR OVC004
PROB40 1506/1517 1/4SM FZFG VV001
FM151700 18006KT P6SM SCT003 BKN080
TEMPO 1517/1520 2SM BR BKN003
FM152000 28006KT P6SM OVC060
TEMPO 1520/1604 P6SM -SHRA OVC020
FM160400 30012KT P6SM SCT020 RMK NXT FCST BY 150900Z



MET'MAP, la Météo Aéronautique d'un coup d'oeil ! - Copyright ORBIFLY Décembre 2007 - Disclaimer

ORBIFLY MET'MAP TEAM :

Programmation & Développement : Alexandra Zaïnal
Conception & Développement : Baudouin d'Aumeries
Co-Programmation & Développement : Marc-Olivier Méhu
Soutien technique & logistique : Manuel Goepfert

Contact : metmap@orbifly.com




SOURCES & CREDITS :

   NOAA       Earth
Advisory